createdAt,value
2022-10-11T00:00:45.051Z,2
2022-10-11T00:02:28.365Z,1
2022-10-11T00:04:11.750Z,2
2022-10-11T00:05:55.254Z,2
2022-10-11T00:07:38.618Z,2
2022-10-11T00:09:21.916Z,3
2022-10-11T00:11:05.332Z,2
2022-10-11T00:12:49.007Z,2
2022-10-11T00:14:32.446Z,2
2022-10-11T00:16:15.809Z,1
2022-10-11T00:17:59.210Z,2
2022-10-11T00:19:42.652Z,2
2022-10-11T00:21:25.973Z,2
2022-10-11T00:23:09.412Z,2
2022-10-11T00:24:52.790Z,2
2022-10-11T00:26:36.537Z,2
2022-10-11T00:28:19.895Z,2
2022-10-11T00:30:03.316Z,2
2022-10-11T00:31:46.732Z,1
2022-10-11T00:33:30.107Z,2
2022-10-11T00:35:13.557Z,1
2022-10-11T00:36:56.891Z,1
2022-10-11T00:38:40.267Z,2
2022-10-11T00:42:06.803Z,2
2022-10-11T00:43:50.131Z,1
2022-10-11T00:45:33.551Z,1
2022-10-11T00:47:16.914Z,2
2022-10-11T00:49:00.313Z,2
2022-10-11T00:50:43.753Z,2
2022-10-11T00:52:27.120Z,1
2022-10-11T00:55:53.598Z,2
2022-10-11T00:57:37.049Z,2
2022-10-11T00:59:20.379Z,2
2022-10-11T01:01:03.819Z,2
2022-10-11T01:02:47.177Z,2
2022-10-11T01:04:30.566Z,2
2022-10-11T01:06:13.994Z,2
2022-10-11T01:07:57.374Z,2
2022-10-11T01:11:23.838Z,2
2022-10-11T01:13:07.274Z,1
2022-10-11T01:14:50.683Z,2
2022-10-11T01:16:34.037Z,1
2022-10-11T01:18:17.412Z,2
2022-10-11T01:20:00.819Z,2
2022-10-11T01:21:44.237Z,2
2022-10-11T01:23:27.641Z,2
2022-10-11T01:26:54.105Z,1
2022-10-11T01:28:37.532Z,1
2022-10-11T01:30:20.872Z,1
2022-10-11T01:32:04.292Z,2
2022-10-11T01:33:47.658Z,2
2022-10-11T01:35:31.046Z,2
2022-10-11T01:37:14.487Z,2
2022-10-11T01:38:57.869Z,2
2022-10-11T01:40:41.617Z,2
2022-10-11T01:42:24.954Z,2
2022-10-11T01:44:08.403Z,2
2022-10-11T01:45:51.842Z,2
2022-10-11T01:47:35.134Z,2
2022-10-11T01:49:18.571Z,1
2022-10-11T01:51:01.984Z,2
2022-10-11T01:52:45.338Z,2
2022-10-11T01:56:11.787Z,2
2022-10-11T01:57:55.185Z,2
2022-10-11T01:59:38.645Z,2
2022-10-11T02:01:21.990Z,2
2022-10-11T02:03:05.374Z,2
2022-10-11T02:04:48.819Z,2
2022-10-11T02:06:32.168Z,2
2022-10-11T02:08:15.590Z,2
2022-10-11T02:11:42.044Z,1
2022-10-11T02:13:25.422Z,1
2022-10-11T02:15:08.902Z,2
2022-10-11T02:16:52.250Z,2
2022-10-11T02:18:35.624Z,2
2022-10-11T02:20:19.065Z,2
2022-10-11T02:22:02.414Z,1
2022-10-11T02:23:45.837Z,1
2022-10-11T02:28:55.072Z,2
2022-10-11T02:30:38.447Z,1
2022-10-11T02:32:21.849Z,2
2022-10-11T02:34:05.275Z,1
2022-10-11T02:35:48.627Z,1
2022-10-11T02:37:32.051Z,2
2022-10-11T02:39:15.551Z,1
2022-10-11T02:40:58.859Z,2
2022-10-11T02:44:25.338Z,1
2022-10-11T02:46:08.765Z,1
2022-10-11T02:47:52.098Z,2
2022-10-11T02:49:35.521Z,1
2022-10-11T02:51:18.876Z,1
2022-10-11T02:53:02.285Z,1
2022-10-11T02:54:45.733Z,2
2022-10-11T02:59:54.994Z,1
2022-10-11T03:01:38.308Z,1
2022-10-11T03:03:21.747Z,1
2022-10-11T03:05:05.167Z,1
2022-10-11T03:06:48.580Z,1
2022-10-11T03:08:31.929Z,1
2022-10-11T03:10:15.295Z,1
2022-10-11T03:11:58.706Z,2
2022-10-11T03:15:25.235Z,1
2022-10-11T03:17:08.573Z,1
2022-10-11T03:18:51.974Z,1
2022-10-11T03:20:35.412Z,1
2022-10-11T03:22:18.767Z,1
2022-10-11T03:24:02.223Z,1
2022-10-11T03:25:45.640Z,1
2022-10-11T03:27:28.936Z,1
2022-10-11T03:30:55.457Z,1
2022-10-11T03:32:38.832Z,1
2022-10-11T03:34:22.220Z,1
2022-10-11T03:36:05.630Z,1
2022-10-11T03:37:48.998Z,1
2022-10-11T03:39:32.436Z,1
2022-10-11T03:41:15.777Z,1
2022-10-11T03:42:59.197Z,1
2022-10-11T03:46:25.730Z,1
2022-10-11T03:48:09.051Z,1
2022-10-11T03:49:52.469Z,2
2022-10-11T03:51:35.911Z,1
2022-10-11T03:53:19.301Z,1
2022-10-11T03:55:02.709Z,1
2022-10-11T03:56:46.034Z,1
2022-10-11T03:58:29.461Z,1
2022-10-11T04:01:55.955Z,1
2022-10-11T04:03:39.325Z,1
2022-10-11T04:05:22.719Z,1
2022-10-11T04:07:06.127Z,1
2022-10-11T04:08:49.495Z,2
2022-10-11T04:10:33.064Z,1
2022-10-11T04:12:16.371Z,1
2022-10-11T04:13:59.681Z,1
2022-10-11T04:15:43.240Z,1
2022-10-11T04:19:09.643Z,1
2022-10-11T04:20:52.986Z,1
2022-10-11T04:22:36.338Z,1
2022-10-11T04:24:19.873Z,1
2022-10-11T04:26:03.268Z,1
2022-10-11T04:27:46.536Z,1
2022-10-11T04:29:29.930Z,1
2022-10-11T04:31:13.449Z,1
2022-10-11T04:34:39.839Z,1
2022-10-11T04:36:23.251Z,1
2022-10-11T04:38:06.594Z,1
2022-10-11T04:39:49.979Z,1
2022-10-11T04:41:33.410Z,1
2022-10-11T04:43:16.780Z,1
2022-10-11T04:45:00.191Z,1
2022-10-11T04:46:43.626Z,1
2022-10-11T04:51:52.813Z,1
2022-10-11T04:53:36.194Z,1
2022-10-11T04:55:19.625Z,1
2022-10-11T04:57:03.032Z,1
2022-10-11T04:58:46.396Z,1
2022-10-11T05:00:29.824Z,1
2022-10-11T05:02:13.245Z,1
2022-10-11T05:03:56.600Z,1
2022-10-11T05:07:23.061Z,1
2022-10-11T05:09:06.436Z,1
2022-10-11T05:10:49.874Z,1
2022-10-11T05:12:33.237Z,1
2022-10-11T05:14:16.637Z,1
2022-10-11T05:16:00.077Z,1
2022-10-11T05:17:43.425Z,1
2022-10-11T05:19:26.867Z,1
2022-10-11T05:21:10.345Z,1
2022-10-11T05:22:53.955Z,1
2022-10-11T05:24:37.315Z,1
2022-10-11T05:26:20.725Z,1
2022-10-11T05:28:04.191Z,2
2022-10-11T05:29:47.499Z,1
2022-10-11T05:31:30.921Z,1
2022-10-11T05:33:14.374Z,1
2022-10-11T05:34:57.706Z,1
2022-10-11T05:40:06.941Z,1
2022-10-11T05:41:50.396Z,1
2022-10-11T05:43:33.723Z,2
2022-10-11T05:45:17.127Z,1
2022-10-11T05:47:00.604Z,1
2022-10-11T05:48:43.956Z,1
2022-10-11T05:50:27.399Z,2
2022-10-11T05:52:10.700Z,3
2022-10-11T05:55:37.176Z,3
2022-10-11T05:57:20.606Z,2
2022-10-11T05:59:03.984Z,2
2022-10-11T06:00:47.440Z,2
2022-10-11T06:02:30.890Z,3
2022-10-11T06:04:14.158Z,5
2022-10-11T06:05:57.673Z,11
2022-10-11T06:07:40.957Z,4
2022-10-11T06:11:07.425Z,5
2022-10-11T06:12:50.865Z,5
2022-10-11T06:14:34.211Z,5
2022-10-11T06:16:17.651Z,6
2022-10-11T06:18:01.058Z,7
2022-10-11T06:19:44.482Z,7
2022-10-11T06:21:27.834Z,7
2022-10-11T06:23:11.226Z,9
2022-10-11T06:28:20.448Z,11
2022-10-11T06:30:03.887Z,12
2022-10-11T06:31:47.266Z,15
2022-10-11T06:33:30.630Z,15
2022-10-11T06:35:14.050Z,14
2022-10-11T06:36:57.470Z,15
2022-10-11T06:38:40.803Z,26
2022-10-11T06:40:24.270Z,15
2022-10-11T06:45:33.482Z,18
2022-10-11T06:47:16.849Z,17
2022-10-11T06:49:00.417Z,16
2022-10-11T06:50:43.676Z,17
2022-10-11T06:52:27.188Z,16
2022-10-11T06:54:10.609Z,16
2022-10-11T06:55:53.882Z,18
2022-10-11T06:57:37.403Z,17
2022-10-11T06:59:20.667Z,18
2022-10-11T07:01:04.323Z,16
2022-10-11T07:02:47.763Z,52
2022-10-11T07:04:31.151Z,53
2022-10-11T07:06:14.534Z,49
2022-10-11T07:07:57.917Z,50
2022-10-11T07:09:41.302Z,55
2022-10-11T07:11:24.757Z,70
2022-10-11T07:13:08.103Z,87
2022-10-11T07:14:51.651Z,91
2022-10-11T07:16:35.349Z,99
2022-10-11T07:18:18.677Z,106
2022-10-11T07:20:02.008Z,104
2022-10-11T07:21:45.511Z,104
2022-10-11T07:23:28.971Z,108
2022-10-11T07:25:12.363Z,117
2022-10-11T07:26:55.688Z,131
2022-10-11T07:28:39.135Z,136
2022-10-11T07:30:22.362Z,131
2022-10-11T07:32:06.155Z,135
2022-10-11T07:33:49.604Z,140
2022-10-11T07:35:32.948Z,143
2022-10-11T07:37:16.334Z,154
2022-10-11T07:38:59.794Z,163
2022-10-11T07:40:43.152Z,166
2022-10-11T07:42:26.596Z,164
2022-10-11T07:44:10.015Z,167
2022-10-11T07:49:19.185Z,186
2022-10-11T07:51:02.540Z,185
2022-10-11T07:52:45.943Z,198
2022-10-11T07:54:29.402Z,205
2022-10-11T07:56:12.782Z,206
2022-10-11T07:57:56.152Z,208
2022-10-11T07:59:39.655Z,219
2022-10-11T08:01:22.935Z,231
2022-10-11T08:03:06.425Z,239
2022-10-11T08:06:32.864Z,245
2022-10-11T08:08:16.245Z,248
2022-10-11T08:09:59.695Z,249
2022-10-11T08:11:43.051Z,249
2022-10-11T08:13:26.449Z,251
2022-10-11T08:15:09.911Z,251
2022-10-11T08:16:53.250Z,251
2022-10-11T08:18:36.580Z,262
2022-10-11T08:22:03.121Z,257
2022-10-11T08:23:46.503Z,239
2022-10-11T08:25:29.801Z,228
2022-10-11T08:27:13.202Z,234
2022-10-11T08:28:56.563Z,385
2022-10-11T08:30:40.000Z,331
2022-10-11T08:32:23.504Z,295
2022-10-11T08:34:06.897Z,336
2022-10-11T08:39:16.015Z,310
2022-10-11T08:40:59.514Z,332
2022-10-11T08:42:42.911Z,346
2022-10-11T08:44:26.351Z,348
2022-10-11T08:46:09.680Z,341
2022-10-11T08:47:52.974Z,333
2022-10-11T08:49:36.409Z,316
2022-10-11T08:51:19.757Z,302
2022-10-11T08:54:46.370Z,299
2022-10-11T08:56:29.619Z,294
2022-10-11T08:58:13.025Z,296
2022-10-11T08:59:56.458Z,278
2022-10-11T09:01:39.809Z,257
2022-10-11T09:03:23.224Z,243
2022-10-11T09:05:06.639Z,249
2022-10-11T09:06:50.008Z,267
2022-10-11T09:11:59.245Z,375
2022-10-11T09:13:42.677Z,400
2022-10-11T09:15:26.040Z,411
2022-10-11T09:17:09.441Z,429
2022-10-11T09:18:52.873Z,442
2022-10-11T09:20:36.225Z,468
2022-10-11T09:22:19.659Z,528
2022-10-11T09:24:03.073Z,557
2022-10-11T09:27:29.614Z,540
2022-10-11T09:29:12.921Z,508
2022-10-11T09:30:56.278Z,468
2022-10-11T09:32:39.685Z,478
2022-10-11T09:34:23.113Z,475
2022-10-11T09:36:06.573Z,461
2022-10-11T09:37:49.887Z,471
2022-10-11T09:39:33.321Z,507
2022-10-11T09:42:59.906Z,449
2022-10-11T09:44:43.159Z,466
2022-10-11T09:46:26.525Z,460
2022-10-11T09:48:09.926Z,441
2022-10-11T09:49:53.362Z,453
2022-10-11T09:51:36.821Z,451
2022-10-11T09:53:20.122Z,448
2022-10-11T09:55:03.573Z,448
2022-10-11T09:58:29.984Z,473
2022-10-11T10:00:13.418Z,468
2022-10-11T10:01:56.781Z,483
2022-10-11T10:03:40.334Z,502
2022-10-11T10:05:23.607Z,525
2022-10-11T10:07:06.958Z,538
2022-10-11T10:08:50.372Z,542
2022-10-11T10:10:33.765Z,559
2022-10-11T10:15:43.055Z,564
2022-10-11T10:17:26.392Z,565
2022-10-11T10:19:09.818Z,580
2022-10-11T10:20:53.207Z,614
2022-10-11T10:22:36.593Z,619
2022-10-11T10:24:20.017Z,607
2022-10-11T10:26:03.469Z,600
2022-10-11T10:27:46.785Z,587
2022-10-11T10:31:13.229Z,530
2022-10-11T10:32:56.644Z,470
2022-10-11T10:34:40.060Z,429
2022-10-11T10:36:23.497Z,436
2022-10-11T10:38:06.825Z,384
2022-10-11T10:39:50.270Z,390
2022-10-11T10:41:33.629Z,387
2022-10-11T10:43:17.036Z,368
2022-10-11T10:45:00.713Z,338
2022-10-11T10:46:44.820Z,292
2022-10-11T10:48:27.539Z,287
2022-10-11T10:50:10.914Z,302
2022-10-11T10:51:54.360Z,295
2022-10-11T10:53:37.697Z,324
2022-10-11T10:55:21.116Z,342
2022-10-11T10:57:04.562Z,371
2022-10-11T11:00:30.972Z,400
2022-10-11T11:02:14.397Z,432
2022-10-11T11:03:57.767Z,461
2022-10-11T11:05:41.167Z,455
2022-10-11T11:07:24.627Z,438
2022-10-11T11:09:07.941Z,457
2022-10-11T11:10:51.422Z,458
2022-10-11T11:12:34.801Z,446
2022-10-11T11:16:01.204Z,453
2022-10-11T11:17:44.651Z,471
2022-10-11T11:19:28.139Z,499
2022-10-11T11:21:11.420Z,546
2022-10-11T11:22:54.852Z,522
2022-10-11T11:24:38.235Z,504
2022-10-11T11:26:21.615Z,511
2022-10-11T11:28:04.974Z,575
2022-10-11T11:29:48.736Z,624
2022-10-11T11:31:32.081Z,650
2022-10-11T11:33:15.499Z,681
2022-10-11T11:34:58.936Z,697
2022-10-11T11:36:42.310Z,727
2022-10-11T11:38:25.693Z,768
2022-10-11T11:40:09.071Z,777
2022-10-11T11:41:52.467Z,777
2022-10-11T11:45:18.984Z,778
2022-10-11T11:47:02.341Z,773
2022-10-11T11:48:45.771Z,778
2022-10-11T11:50:29.181Z,778
2022-10-11T11:52:12.529Z,777
2022-10-11T11:53:55.939Z,778
2022-10-11T11:55:39.329Z,778
2022-10-11T12:00:48.622Z,778
2022-10-11T12:02:31.949Z,778
2022-10-11T12:04:15.388Z,778
2022-10-11T12:05:58.745Z,778
2022-10-11T12:07:42.151Z,778
2022-10-11T12:09:25.624Z,778
2022-10-11T12:11:08.926Z,778
2022-10-11T12:14:35.428Z,778
2022-10-11T12:16:18.805Z,778
2022-10-11T12:18:02.196Z,779
2022-10-11T12:19:45.630Z,778
2022-10-11T12:21:29.000Z,761
2022-10-11T12:23:12.446Z,717
2022-10-11T12:24:55.846Z,778
2022-10-11T12:28:22.255Z,778
2022-10-11T12:30:05.679Z,778
2022-10-11T12:31:49.128Z,778
2022-10-11T12:33:32.439Z,778
2022-10-11T12:35:15.882Z,766
2022-10-11T12:36:59.272Z,729
2022-10-11T12:38:42.652Z,710
2022-10-11T12:43:51.889Z,445
2022-10-11T12:45:35.341Z,390
2022-10-11T12:47:18.675Z,345
2022-10-11T12:49:02.091Z,307
2022-10-11T12:50:45.476Z,292
2022-10-11T12:52:28.865Z,281
2022-10-11T12:54:12.295Z,278
2022-10-11T12:57:38.763Z,243
2022-10-11T12:59:22.135Z,225
2022-10-11T13:01:05.572Z,196
2022-10-11T13:02:48.920Z,178
2022-10-11T13:04:32.373Z,169
2022-10-11T13:06:15.704Z,165
2022-10-11T13:07:59.102Z,159
2022-10-11T13:09:42.543Z,155
2022-10-11T13:11:26.219Z,156
2022-10-11T13:13:09.658Z,159
2022-10-11T13:14:53.001Z,163
2022-10-11T13:16:36.422Z,174
2022-10-11T13:18:19.842Z,179
2022-10-11T13:20:03.189Z,185
2022-10-11T13:21:46.715Z,195
2022-10-11T13:26:55.861Z,198
2022-10-11T13:28:39.232Z,214
2022-10-11T13:30:22.623Z,221
2022-10-11T13:32:06.089Z,223
2022-10-11T13:33:49.414Z,222
2022-10-11T13:35:32.831Z,211
2022-10-11T13:37:16.273Z,183
2022-10-11T13:42:25.509Z,178
2022-10-11T13:44:08.850Z,172
2022-10-11T13:45:52.306Z,161
2022-10-11T13:47:35.651Z,158
2022-10-11T13:49:19.037Z,155
2022-10-11T13:51:02.502Z,148
2022-10-11T13:52:45.824Z,144
2022-10-11T13:57:55.088Z,154
2022-10-11T13:59:38.483Z,155
2022-10-11T14:01:21.920Z,664
2022-10-11T14:03:05.288Z,169
2022-10-11T14:04:48.780Z,179
2022-10-11T14:06:32.059Z,183
2022-10-11T14:08:15.458Z,181
2022-10-11T14:13:24.718Z,181
2022-10-11T14:15:08.143Z,176
2022-10-11T14:16:51.483Z,168
2022-10-11T14:18:34.891Z,161
2022-10-11T14:20:18.349Z,154
2022-10-11T14:22:01.776Z,147
2022-10-11T14:23:45.089Z,143
2022-10-11T14:27:11.610Z,146
2022-10-11T14:28:54.962Z,140
2022-10-11T14:30:38.379Z,134
2022-10-11T14:32:21.750Z,131
2022-10-11T14:34:05.199Z,133
2022-10-11T14:35:48.630Z,138
2022-10-11T14:37:31.959Z,146
2022-10-11T14:40:58.419Z,152
2022-10-11T14:42:41.800Z,150
2022-10-11T14:44:25.200Z,150
2022-10-11T14:46:08.697Z,146
2022-10-11T14:47:52.031Z,142
2022-10-11T14:49:35.403Z,137
2022-10-11T14:51:18.822Z,132
2022-10-11T14:53:02.170Z,128
2022-10-11T14:54:45.884Z,110
2022-10-11T14:56:29.313Z,121
2022-10-11T14:58:12.758Z,118
2022-10-11T14:59:56.069Z,114
2022-10-11T15:01:39.505Z,111
2022-10-11T15:03:22.910Z,109
2022-10-11T15:05:06.273Z,107
2022-10-11T15:06:49.685Z,107
2022-10-11T15:08:33.355Z,106
2022-10-11T15:10:16.797Z,106
2022-10-11T15:12:00.142Z,107
2022-10-11T15:13:43.608Z,109
2022-10-11T15:15:26.936Z,114
2022-10-11T15:17:10.327Z,118
2022-10-11T15:18:53.783Z,119
2022-10-11T15:22:20.232Z,123
2022-10-11T15:24:03.604Z,125
2022-10-11T15:25:47.134Z,132
2022-10-11T15:27:30.398Z,138
2022-10-11T15:29:13.802Z,143
2022-10-11T15:30:57.429Z,150
2022-10-11T15:32:40.581Z,155
2022-10-11T15:36:07.104Z,164
2022-10-11T15:37:50.452Z,176
2022-10-11T15:39:33.901Z,178
2022-10-11T15:41:17.316Z,167
2022-10-11T15:43:00.641Z,176
2022-10-11T15:44:44.101Z,204
2022-10-11T15:46:27.459Z,195
2022-10-11T15:48:10.824Z,198
2022-10-11T15:49:54.545Z,186
2022-10-11T15:51:37.937Z,190
2022-10-11T15:53:21.371Z,180
2022-10-11T15:55:04.720Z,170
2022-10-11T15:56:48.159Z,174
2022-10-11T15:58:31.595Z,172
2022-10-11T16:00:14.903Z,164
2022-10-11T16:01:58.385Z,160
2022-10-11T16:05:24.778Z,152
2022-10-11T16:07:08.186Z,147
2022-10-11T16:08:51.639Z,144
2022-10-11T16:10:35.026Z,159
2022-10-11T16:12:18.390Z,168
2022-10-11T16:14:01.804Z,142
2022-10-11T16:15:45.206Z,126
2022-10-11T16:17:28.619Z,118
2022-10-11T16:20:55.128Z,110
2022-10-11T16:22:38.494Z,104
2022-10-11T16:24:21.879Z,93
2022-10-11T16:26:05.220Z,79
2022-10-11T16:27:48.689Z,68
2022-10-11T16:29:32.017Z,52
2022-10-11T16:31:15.395Z,43
2022-10-11T16:32:58.834Z,35
2022-10-11T16:34:42.518Z,26
2022-10-11T16:36:25.970Z,22
2022-10-11T16:38:09.292Z,17
2022-10-11T16:39:52.736Z,14
2022-10-11T16:41:36.087Z,13
2022-10-11T16:43:19.490Z,12
2022-10-11T16:45:02.984Z,13
2022-10-11T16:46:46.284Z,17
2022-10-11T16:48:29.982Z,20
2022-10-11T16:50:13.384Z,18
2022-10-11T16:51:56.811Z,14
2022-10-11T16:53:40.165Z,9
2022-10-11T16:55:23.594Z,6
2022-10-11T16:57:07.081Z,4
2022-10-11T16:58:50.369Z,4
2022-10-11T17:00:33.771Z,4
2022-10-11T17:04:00.221Z,4
2022-10-11T17:05:43.616Z,3
2022-10-11T17:07:27.055Z,3
2022-10-11T17:09:10.424Z,2
2022-10-11T17:10:53.816Z,2
2022-10-11T17:12:37.258Z,3
2022-10-11T17:14:20.617Z,3
2022-10-11T17:16:04.137Z,2
2022-10-11T17:17:47.734Z,9
2022-10-11T17:19:31.136Z,8
2022-10-11T17:21:14.515Z,9
2022-10-11T17:22:57.897Z,10
2022-10-11T17:24:41.346Z,9
2022-10-11T17:26:24.724Z,9
2022-10-11T17:28:08.163Z,9
2022-10-11T17:29:51.529Z,10
2022-10-11T17:33:17.980Z,9
2022-10-11T17:35:01.389Z,9
2022-10-11T17:36:44.822Z,9
2022-10-11T17:38:28.163Z,9
2022-10-11T17:40:11.583Z,9
2022-10-11T17:41:54.962Z,145
2022-10-11T17:43:38.386Z,145
2022-10-11T17:48:47.647Z,145
2022-10-11T17:50:31.030Z,146
2022-10-11T17:52:14.434Z,145
2022-10-11T17:53:57.804Z,145
2022-10-11T17:55:41.161Z,144
2022-10-11T17:57:24.558Z,145
2022-10-11T17:59:08.004Z,650
2022-10-11T18:02:34.417Z,145
2022-10-11T18:04:17.859Z,8
2022-10-11T18:06:01.288Z,6
2022-10-11T18:07:44.608Z,9
2022-10-11T18:09:28.054Z,9
2022-10-11T18:11:11.400Z,9
2022-10-11T18:12:54.808Z,9
2022-10-11T18:14:38.255Z,9
2022-10-11T18:18:04.672Z,9
2022-10-11T18:19:48.128Z,9
2022-10-11T18:21:31.458Z,9
2022-10-11T18:23:14.844Z,9
2022-10-11T18:24:58.337Z,9
2022-10-11T18:26:41.722Z,10
2022-10-11T18:28:25.044Z,9
2022-10-11T18:31:51.567Z,9
2022-10-11T18:33:34.921Z,10
2022-10-11T18:35:18.364Z,10
2022-10-11T18:37:01.714Z,10
2022-10-11T18:38:45.097Z,10
2022-10-11T18:40:28.572Z,9
2022-10-11T18:42:11.946Z,9
2022-10-11T18:43:55.311Z,10
2022-10-11T18:45:38.995Z,9
2022-10-11T18:47:22.414Z,10
2022-10-11T18:49:05.811Z,10
2022-10-11T18:50:49.188Z,9
2022-10-11T18:52:32.618Z,8
2022-10-11T18:54:16.022Z,10
2022-10-11T18:55:59.489Z,9
2022-10-11T18:57:42.830Z,10
2022-10-11T19:01:09.249Z,9
2022-10-11T19:02:52.673Z,9
2022-10-11T19:04:36.052Z,8
2022-10-11T19:06:19.444Z,9
2022-10-11T19:08:02.887Z,9
2022-10-11T19:09:46.221Z,9
2022-10-11T19:11:29.686Z,8
2022-10-11T19:13:13.076Z,9
2022-10-11T19:14:56.767Z,9
2022-10-11T19:16:40.130Z,9
2022-10-11T19:18:23.510Z,9
2022-10-11T19:20:06.973Z,9
2022-10-11T19:21:50.344Z,9
2022-10-11T19:23:33.719Z,9
2022-10-11T19:25:17.208Z,9
2022-10-11T19:27:00.502Z,8
2022-10-11T19:30:26.997Z,9
2022-10-11T19:32:10.427Z,10
2022-10-11T19:33:53.772Z,9
2022-10-11T19:35:37.210Z,9
2022-10-11T19:37:20.555Z,9
2022-10-11T19:39:03.971Z,9
2022-10-11T19:40:47.412Z,9
2022-10-11T19:42:30.737Z,9
2022-10-11T19:44:14.471Z,9
2022-10-11T19:45:57.845Z,9
2022-10-11T19:47:41.298Z,9
2022-10-11T19:49:24.647Z,9
2022-10-11T19:51:08.069Z,10
2022-10-11T19:52:51.437Z,9
2022-10-11T19:54:34.869Z,10
2022-10-11T19:56:18.254Z,9
2022-10-11T19:59:44.711Z,9
2022-10-11T20:01:28.103Z,9
2022-10-11T20:03:11.533Z,9
2022-10-11T20:04:54.895Z,9
2022-10-11T20:06:38.299Z,9
2022-10-11T20:08:21.674Z,9
2022-10-11T20:10:05.082Z,9
2022-10-11T20:11:48.497Z,10
2022-10-11T20:13:32.330Z,9
2022-10-11T20:15:15.759Z,9
2022-10-11T20:16:59.101Z,10
2022-10-11T20:18:42.469Z,9
2022-10-11T20:20:25.965Z,10
2022-10-11T20:22:09.276Z,9
2022-10-11T20:23:52.729Z,9
2022-10-11T20:25:36.138Z,10
2022-10-11T20:29:02.547Z,8
2022-10-11T20:30:45.886Z,9
2022-10-11T20:32:29.260Z,9
2022-10-11T20:34:12.679Z,9
2022-10-11T20:35:56.098Z,10
2022-10-11T20:37:39.497Z,9
2022-10-11T20:39:22.849Z,9
2022-10-11T20:41:06.210Z,10
2022-10-11T20:42:49.965Z,9
2022-10-11T20:44:33.389Z,9
2022-10-11T20:46:16.711Z,9
2022-10-11T20:48:00.181Z,9
2022-10-11T20:49:43.597Z,9
2022-10-11T20:51:26.919Z,9
2022-10-11T20:53:10.359Z,9
2022-10-11T20:58:19.530Z,9
2022-10-11T21:00:02.956Z,9
2022-10-11T21:01:46.398Z,9
2022-10-11T21:03:29.795Z,9
2022-10-11T21:05:13.139Z,10
2022-10-11T21:06:56.504Z,9
2022-10-11T21:08:39.984Z,9
2022-10-11T21:12:06.543Z,9
2022-10-11T21:13:49.838Z,9
2022-10-11T21:15:33.230Z,9
2022-10-11T21:17:16.628Z,9
2022-10-11T21:18:59.970Z,9
2022-10-11T21:20:43.374Z,9
2022-10-11T21:22:26.745Z,9
2022-10-11T21:25:53.325Z,9
2022-10-11T21:27:36.654Z,10
2022-10-11T21:29:20.068Z,11
2022-10-11T21:31:03.420Z,9
2022-10-11T21:32:46.854Z,9
2022-10-11T21:34:30.250Z,9
2022-10-11T21:36:13.619Z,9
2022-10-11T21:39:40.155Z,9
2022-10-11T21:41:23.476Z,9
2022-10-11T21:43:06.898Z,9
2022-10-11T21:44:50.279Z,9
2022-10-11T21:46:33.688Z,9
2022-10-11T21:48:17.107Z,10
2022-10-11T21:50:00.474Z,8
2022-10-11T21:51:43.910Z,2
2022-10-11T21:53:27.664Z,2
2022-10-11T21:55:10.986Z,2
2022-10-11T21:56:54.454Z,2
2022-10-11T21:58:37.780Z,2
2022-10-11T22:00:21.234Z,2
2022-10-11T22:02:04.535Z,15
2022-10-11T22:03:47.951Z,2
2022-10-11T22:05:31.401Z,2
2022-10-11T22:07:15.078Z,2
2022-10-11T22:08:58.438Z,2
2022-10-11T22:10:41.833Z,2
2022-10-11T22:12:25.220Z,3
2022-10-11T22:14:08.625Z,1
2022-10-11T22:15:52.037Z,2
2022-10-11T22:17:35.410Z,2
2022-10-11T22:22:44.720Z,2
2022-10-11T22:24:28.054Z,2
2022-10-11T22:26:11.478Z,2
2022-10-11T22:27:54.843Z,2
2022-10-11T22:29:38.244Z,2
2022-10-11T22:31:21.690Z,2
2022-10-11T22:33:05.021Z,2
2022-10-11T22:38:14.265Z,2
2022-10-11T22:39:57.709Z,1
2022-10-11T22:41:41.058Z,1
2022-10-11T22:43:24.461Z,1
2022-10-11T22:45:07.899Z,1
2022-10-11T22:46:51.241Z,1
2022-10-11T22:48:34.648Z,2
2022-10-11T22:50:18.092Z,2
2022-10-11T22:53:44.514Z,2
2022-10-11T22:55:27.950Z,2
2022-10-11T22:57:11.302Z,2
2022-10-11T22:58:54.719Z,2
2022-10-11T23:00:38.134Z,2
2022-10-11T23:02:21.533Z,2
2022-10-11T23:04:04.920Z,3
2022-10-11T23:09:14.165Z,2
2022-10-11T23:10:57.585Z,1
2022-10-11T23:12:40.923Z,2
2022-10-11T23:14:24.346Z,2
2022-10-11T23:16:07.785Z,1
2022-10-11T23:17:51.111Z,3
2022-10-11T23:19:34.548Z,2
2022-10-11T23:24:43.786Z,2
2022-10-11T23:26:27.139Z,2
2022-10-11T23:28:10.546Z,2
2022-10-11T23:29:53.987Z,2
2022-10-11T23:31:37.364Z,2
2022-10-11T23:33:20.813Z,1
2022-10-11T23:35:04.191Z,1
2022-10-11T23:36:47.518Z,1
2022-10-11T23:40:14.067Z,2
2022-10-11T23:41:57.391Z,2
2022-10-11T23:43:40.820Z,2
2022-10-11T23:45:24.251Z,1
2022-10-11T23:47:07.579Z,1
2022-10-11T23:48:50.998Z,1
2022-10-11T23:50:34.378Z,2
2022-10-11T23:55:43.685Z,2
2022-10-11T23:57:27.036Z,2
2022-10-11T23:59:10.444Z,1
